createdAt,value
2018-02-03T00:02:15.259Z,1.60
2018-02-03T00:04:42.820Z,1.50
2018-02-03T00:07:10.354Z,1.60
2018-02-03T00:09:38.686Z,1.60
2018-02-03T00:12:06.223Z,1.50
2018-02-03T00:14:33.773Z,1.70
2018-02-03T00:17:01.314Z,1.70
2018-02-03T00:19:28.850Z,1.60
2018-02-03T00:21:58.318Z,1.60
2018-02-03T00:24:25.848Z,1.50
2018-02-03T00:26:53.397Z,1.70
2018-02-03T00:29:20.923Z,1.70
2018-02-03T00:31:49.239Z,1.50
2018-02-03T00:34:16.772Z,1.50
2018-02-03T00:36:45.071Z,1.70
2018-02-03T00:39:12.622Z,1.70
2018-02-03T00:41:40.154Z,1.80
2018-02-03T00:44:07.713Z,1.70
2018-02-03T00:46:36.964Z,1.90
2018-02-03T00:49:04.501Z,1.90
2018-02-03T00:51:32.027Z,1.80
2018-02-03T00:53:59.555Z,2.00
2018-02-03T00:56:27.114Z,1.80
2018-02-03T00:58:54.636Z,1.80
2018-02-03T01:01:22.182Z,1.50
2018-02-03T01:03:50.466Z,1.70
2018-02-03T01:06:19.083Z,1.70
2018-02-03T01:08:46.611Z,1.50
2018-02-03T01:11:14.159Z,1.60
2018-02-03T01:13:43.487Z,1.80
2018-02-03T01:16:11.015Z,1.80
2018-02-03T01:18:38.575Z,2.00
2018-02-03T01:21:06.098Z,1.80
2018-02-03T01:23:33.646Z,1.90
2018-02-03T01:26:01.178Z,2.10
2018-02-03T01:28:28.739Z,2.00
2018-02-03T01:30:56.271Z,2.00
2018-02-03T01:33:23.820Z,2.00
2018-02-03T01:35:52.130Z,2.00
2018-02-03T01:38:19.656Z,2.00
2018-02-03T01:40:47.974Z,2.10
2018-02-03T01:43:15.489Z,2.10
2018-02-03T01:45:43.802Z,2.20
2018-02-03T01:48:12.279Z,2.10
2018-02-03T01:50:39.848Z,2.20
2018-02-03T01:53:07.370Z,2.30
2018-02-03T01:55:34.896Z,2.30
2018-02-03T01:58:02.464Z,2.10
2018-02-03T02:00:29.995Z,2.20
2018-02-03T02:02:57.574Z,2.20
2018-02-03T02:05:25.113Z,2.20
2018-02-03T02:07:52.674Z,2.20
2018-02-03T02:10:20.199Z,2.10
2018-02-03T02:12:47.758Z,2.10
2018-02-03T02:15:15.275Z,2.10
2018-02-03T02:17:42.803Z,2.20
2018-02-03T02:20:12.299Z,2.20
2018-02-03T02:22:39.815Z,2.20
2018-02-03T02:25:08.128Z,2.20
2018-02-03T02:27:35.973Z,2.20
2018-02-03T02:30:03.540Z,2.20
2018-02-03T02:32:31.074Z,2.20
2018-02-03T02:34:58.672Z,2.20
2018-02-03T02:37:26.222Z,2.20
2018-02-03T02:39:54.707Z,2.20
2018-02-03T02:42:22.260Z,2.30
2018-02-03T02:44:49.781Z,2.20
2018-02-03T02:47:17.349Z,2.20
2018-02-03T02:49:44.882Z,2.20
2018-02-03T02:52:12.444Z,2.30
2018-02-03T02:54:39.976Z,2.30
2018-02-03T02:57:07.503Z,2.40
2018-02-03T02:59:35.078Z,2.30
2018-02-03T03:02:02.621Z,2.30
2018-02-03T03:04:30.170Z,2.40
2018-02-03T03:06:57.710Z,2.40
2018-02-03T03:09:26.030Z,2.40
2018-02-03T03:11:53.550Z,2.40
2018-02-03T03:14:21.849Z,2.40
2018-02-03T03:16:49.397Z,2.40
2018-02-03T03:19:17.692Z,2.40
2018-02-03T03:21:45.264Z,2.40
2018-02-03T03:24:13.780Z,2.40
2018-02-03T03:26:41.326Z,2.50
2018-02-03T03:29:08.863Z,2.50
2018-02-03T03:31:37.354Z,2.50
2018-02-03T03:34:04.916Z,2.50
2018-02-03T03:36:32.443Z,2.50
2018-02-03T03:39:01.942Z,2.30
2018-02-03T03:41:29.477Z,2.20
2018-02-03T03:43:57.030Z,2.40
2018-02-03T03:46:24.564Z,2.50
2018-02-03T03:48:52.094Z,2.50
2018-02-03T03:51:19.631Z,2.40
2018-02-03T03:53:48.121Z,1.90
2018-02-03T03:56:17.623Z,1.90
2018-02-03T03:58:45.203Z,1.80
2018-02-03T04:01:12.751Z,1.70
2018-02-03T04:03:40.303Z,1.80
2018-02-03T04:06:07.844Z,1.80
2018-02-03T04:08:36.171Z,2.00
2018-02-03T04:11:03.694Z,2.00
2018-02-03T04:13:31.266Z,2.20
2018-02-03T04:15:58.791Z,2.30
2018-02-03T04:18:28.302Z,2.40
2018-02-03T04:20:55.823Z,2.50
2018-02-03T04:23:23.355Z,2.40
2018-02-03T04:25:50.904Z,2.50
2018-02-03T04:28:18.429Z,2.50
2018-02-03T04:30:46.004Z,2.50
2018-02-03T04:33:13.539Z,2.50
2018-02-03T04:35:41.087Z,2.50
2018-02-03T04:38:09.383Z,2.40
2018-02-03T04:40:38.895Z,2.40
2018-02-03T04:43:07.222Z,2.40
2018-02-03T04:45:34.764Z,2.40
2018-02-03T04:48:02.315Z,2.40
2018-02-03T04:50:29.841Z,2.30
2018-02-03T04:52:57.390Z,2.30
2018-02-03T04:55:25.681Z,2.40
2018-02-03T04:57:54.000Z,2.30
2018-02-03T05:00:21.607Z,2.30
2018-02-03T05:02:49.179Z,2.40
2018-02-03T05:05:18.442Z,2.50
2018-02-03T05:07:45.966Z,2.40
2018-02-03T05:10:13.544Z,2.40
2018-02-03T05:12:41.054Z,2.50
2018-02-03T05:15:09.395Z,2.60
2018-02-03T05:17:36.928Z,2.60
2018-02-03T05:20:06.480Z,2.50
2018-02-03T05:22:34.002Z,2.50
2018-02-03T05:25:01.546Z,2.50
2018-02-03T05:27:29.066Z,2.50
2018-02-03T05:29:56.593Z,2.60
2018-02-03T05:32:24.151Z,2.50
2018-02-03T05:34:51.688Z,2.60
2018-02-03T05:37:19.232Z,2.50
2018-02-03T05:39:46.755Z,2.30
2018-02-03T05:42:14.334Z,2.30
2018-02-03T05:44:42.668Z,2.30
2018-02-03T05:47:10.194Z,2.40
2018-02-03T05:49:37.740Z,2.30
2018-02-03T05:52:05.273Z,2.30
2018-02-03T05:54:32.829Z,2.50
2018-02-03T05:57:00.367Z,2.50
2018-02-03T05:59:28.696Z,2.00
2018-02-03T06:01:56.223Z,2.00
2018-02-03T06:04:24.546Z,1.90
2018-02-03T06:06:52.074Z,1.90
2018-02-03T06:09:19.608Z,1.90
2018-02-03T06:11:48.819Z,1.90
2018-02-03T06:14:16.335Z,1.90
2018-02-03T06:16:43.886Z,2.10
2018-02-03T06:19:12.360Z,2.00
2018-02-03T06:21:41.867Z,1.90
2018-02-03T06:24:09.392Z,2.00
2018-02-03T06:26:36.955Z,2.20
2018-02-03T06:29:04.489Z,2.40
2018-02-03T06:31:32.023Z,2.50
2018-02-03T06:33:59.590Z,2.50
2018-02-03T06:36:27.118Z,2.60
2018-02-03T06:38:54.677Z,2.60
2018-02-03T06:41:22.215Z,2.50
2018-02-03T06:43:52.218Z,2.60
2018-02-03T06:46:19.755Z,2.70
2018-02-03T06:48:47.318Z,2.70
2018-02-03T06:51:15.607Z,2.80
2018-02-03T06:53:43.134Z,2.80
2018-02-03T06:56:11.451Z,2.80
2018-02-03T06:58:38.974Z,2.80
2018-02-03T07:01:06.523Z,2.80
2018-02-03T07:03:34.054Z,2.80
2018-02-03T07:06:01.616Z,2.80
2018-02-03T07:08:29.143Z,2.80
2018-02-03T07:10:56.702Z,2.80
2018-02-03T07:13:24.249Z,2.80
2018-02-03T07:15:52.535Z,2.90
2018-02-03T07:18:20.095Z,2.80
2018-02-03T07:20:47.780Z,2.80
2018-02-03T07:23:17.247Z,2.80
2018-02-03T07:25:44.773Z,2.90
2018-02-03T07:28:12.326Z,2.90
2018-02-03T07:30:39.853Z,2.80
2018-02-03T07:33:07.410Z,2.40
2018-02-03T07:35:34.935Z,2.20
2018-02-03T07:38:04.218Z,2.60
2018-02-03T07:40:32.573Z,2.70
2018-02-03T07:43:00.103Z,2.70
2018-02-03T07:45:33.251Z,2.80
2018-02-03T07:48:00.802Z,2.80
2018-02-03T07:50:29.375Z,2.80
2018-02-03T07:52:56.895Z,2.80
2018-02-03T07:55:25.382Z,2.90
2018-02-03T07:57:53.148Z,2.80
2018-02-03T08:00:20.683Z,2.90
2018-02-03T08:02:48.251Z,2.70
2018-02-03T08:05:15.783Z,2.70
2018-02-03T08:07:44.094Z,2.60
2018-02-03T08:10:11.627Z,2.60
2018-02-03T08:12:39.191Z,2.70
2018-02-03T08:15:06.714Z,2.80
2018-02-03T08:17:34.273Z,3.00
2018-02-03T08:20:02.570Z,3.00
2018-02-03T08:22:30.860Z,3.00
2018-02-03T08:24:58.441Z,2.90
2018-02-03T08:27:26.000Z,2.70
2018-02-03T08:29:53.556Z,2.40
2018-02-03T08:32:21.508Z,2.70
2018-02-03T08:34:49.080Z,2.90
2018-02-03T08:37:16.653Z,3.00
2018-02-03T08:39:44.211Z,2.80
2018-02-03T08:42:12.742Z,3.00
2018-02-03T08:44:40.284Z,3.10
2018-02-03T08:47:07.843Z,3.20
2018-02-03T08:49:35.371Z,3.30
2018-02-03T08:52:02.936Z,3.30
2018-02-03T08:54:30.496Z,3.50
2018-02-03T08:56:58.046Z,3.50
2018-02-03T08:59:25.566Z,3.50
2018-02-03T09:01:53.137Z,3.60
2018-02-03T09:04:20.676Z,3.60
2018-02-03T09:06:48.979Z,3.70
2018-02-03T09:09:18.582Z,3.70
2018-02-03T09:11:57.839Z,3.70
2018-02-03T09:14:25.411Z,3.80
2018-02-03T09:16:52.956Z,3.90
2018-02-03T09:19:20.507Z,3.90
2018-02-03T09:21:48.043Z,3.80
2018-02-03T09:24:15.578Z,3.70
2018-02-03T09:26:45.120Z,3.70
2018-02-03T09:29:12.890Z,3.70
2018-02-03T09:31:40.461Z,3.70
2018-02-03T09:34:08.002Z,3.50
2018-02-03T09:36:35.570Z,3.40
2018-02-03T09:39:04.098Z,3.50
2018-02-03T09:41:32.620Z,3.30
2018-02-03T09:44:00.188Z,3.30
2018-02-03T09:46:27.753Z,3.50
2018-02-03T09:48:55.307Z,3.60
2018-02-03T09:51:22.833Z,3.30
2018-02-03T09:53:51.158Z,3.50
2018-02-03T09:56:18.685Z,3.50
2018-02-03T09:58:46.255Z,3.60
2018-02-03T10:01:13.812Z,3.60
2018-02-03T10:03:41.344Z,3.50
2018-02-03T10:06:09.678Z,3.70
2018-02-03T10:08:37.206Z,3.70
2018-02-03T10:11:04.764Z,3.60
2018-02-03T10:13:32.284Z,4.00
2018-02-03T10:15:59.839Z,4.30
2018-02-03T10:18:28.139Z,4.60
2018-02-03T10:20:55.669Z,4.50
2018-02-03T10:23:23.232Z,4.40
2018-02-03T10:25:50.754Z,4.50
2018-02-03T10:28:18.343Z,4.50
2018-02-03T10:30:46.861Z,4.70
2018-02-03T10:33:14.437Z,4.60
2018-02-03T10:35:41.967Z,4.10
2018-02-03T10:38:10.275Z,4.00
2018-02-03T10:40:37.833Z,4.00
2018-02-03T10:43:05.363Z,3.80
2018-02-03T10:45:33.701Z,4.80
2018-02-03T10:48:01.249Z,4.80
2018-02-03T10:50:28.822Z,5.00
2018-02-03T10:52:56.389Z,5.00
2018-02-03T10:55:23.946Z,5.10
2018-02-03T10:57:51.530Z,5.00
2018-02-03T11:00:19.851Z,4.80
2018-02-03T11:02:47.423Z,4.80
2018-02-03T11:05:15.895Z,4.30
2018-02-03T11:07:43.554Z,4.60
2018-02-03T11:10:11.082Z,4.70
2018-02-03T11:12:38.643Z,4.70
2018-02-03T11:15:06.171Z,4.90
2018-02-03T11:17:34.666Z,5.10
2018-02-03T11:20:03.219Z,4.90
2018-02-03T11:22:31.053Z,4.90
2018-02-03T11:24:58.935Z,5.10
2018-02-03T11:27:26.783Z,4.90
2018-02-03T11:29:55.503Z,5.10
2018-02-03T11:32:23.352Z,5.30
2018-02-03T11:34:50.900Z,5.40
2018-02-03T11:37:18.470Z,5.40
2018-02-03T11:39:45.995Z,5.30
2018-02-03T11:42:14.538Z,5.00
2018-02-03T11:44:42.834Z,4.90
2018-02-03T11:47:11.155Z,5.10
2018-02-03T11:49:38.678Z,5.20
2018-02-03T11:52:07.949Z,5.00
2018-02-03T11:54:35.509Z,5.00
2018-02-03T11:57:03.075Z,5.40
2018-02-03T11:59:30.644Z,5.70
2018-02-03T12:01:58.172Z,5.90
2018-02-03T12:04:27.660Z,6.00
2018-02-03T12:06:55.200Z,6.00
2018-02-03T12:09:23.703Z,5.90
2018-02-03T12:11:51.254Z,5.70
2018-02-03T12:14:18.776Z,5.30
2018-02-03T12:16:47.094Z,5.10
2018-02-03T12:19:14.629Z,5.10
2018-02-03T12:21:42.193Z,5.10
2018-02-03T12:24:09.728Z,4.90
2018-02-03T12:26:38.081Z,4.60
2018-02-03T12:29:05.622Z,4.60
2018-02-03T12:31:33.144Z,4.60
2018-02-03T12:34:00.700Z,4.80
2018-02-03T12:36:28.231Z,4.50
2018-02-03T12:38:55.780Z,4.90
2018-02-03T12:41:23.320Z,5.10
2018-02-03T12:43:50.878Z,5.50
2018-02-03T12:46:18.433Z,5.40
2018-02-03T12:48:45.959Z,5.30
2018-02-03T12:51:13.531Z,5.30
2018-02-03T12:53:41.052Z,5.30
2018-02-03T12:56:08.605Z,5.60
2018-02-03T12:58:37.855Z,5.60
2018-02-03T13:01:06.516Z,5.60
2018-02-03T13:03:34.056Z,5.80
2018-02-03T13:06:01.595Z,6.30
2018-02-03T13:08:29.150Z,6.40
2018-02-03T13:10:56.683Z,6.40
2018-02-03T13:13:24.255Z,6.20
2018-02-03T13:15:51.789Z,6.00
2018-02-03T13:18:19.358Z,6.10
2018-02-03T13:20:46.887Z,6.00
2018-02-03T13:23:14.459Z,5.80
2018-02-03T13:25:41.984Z,5.80
2018-02-03T13:28:09.527Z,5.80
2018-02-03T13:30:37.863Z,6.00
2018-02-03T13:33:05.386Z,6.00
2018-02-03T13:35:32.936Z,6.30
2018-02-03T13:38:00.471Z,6.10
2018-02-03T13:40:28.787Z,6.60
2018-02-03T13:42:56.340Z,6.60
2018-02-03T13:45:23.944Z,6.70
2018-02-03T13:47:51.470Z,6.40
2018-02-03T13:50:20.004Z,6.50
2018-02-03T13:52:47.558Z,6.70
2018-02-03T13:55:15.091Z,6.70
2018-02-03T13:57:44.574Z,6.80
2018-02-03T14:00:12.097Z,7.00
2018-02-03T14:02:39.659Z,6.90
2018-02-03T14:05:08.950Z,6.90
2018-02-03T14:07:37.163Z,6.90
2018-02-03T14:10:04.712Z,6.80
2018-02-03T14:12:32.256Z,6.80
2018-02-03T14:14:59.820Z,6.80
2018-02-03T14:17:27.361Z,6.70
2018-02-03T14:19:55.686Z,6.60
2018-02-03T14:22:24.175Z,6.60
2018-02-03T14:24:52.186Z,6.60
2018-02-03T14:27:21.739Z,6.60
2018-02-03T14:29:50.770Z,6.30
2018-02-03T14:32:18.347Z,6.00
2018-02-03T14:34:46.638Z,5.60
2018-02-03T14:37:14.972Z,5.30
2018-02-03T14:39:43.731Z,5.30
2018-02-03T14:42:11.431Z,5.40
2018-02-03T14:44:38.978Z,5.40
2018-02-03T14:47:06.509Z,5.40
2018-02-03T14:49:34.131Z,5.30
2018-02-03T14:52:01.663Z,5.30
2018-02-03T14:54:29.183Z,5.30
2018-02-03T14:56:58.711Z,5.40
2018-02-03T14:59:27.190Z,5.10
2018-02-03T15:01:54.760Z,5.20
2018-02-03T15:04:22.303Z,5.20
2018-02-03T15:06:49.871Z,5.20
2018-02-03T15:09:17.470Z,5.30
2018-02-03T15:11:45.041Z,5.30
2018-02-03T15:14:13.366Z,5.20
2018-02-03T15:16:40.900Z,5.20
2018-02-03T15:19:08.459Z,5.20
2018-02-03T15:21:35.983Z,5.20
2018-02-03T15:24:04.465Z,5.10
2018-02-03T15:26:32.795Z,4.80
2018-02-03T15:29:01.274Z,4.80
2018-02-03T15:31:28.834Z,4.80
2018-02-03T15:33:56.357Z,4.80
2018-02-03T15:36:23.874Z,4.70
2018-02-03T15:38:51.427Z,4.50
2018-02-03T15:41:18.963Z,4.40
2018-02-03T15:43:46.530Z,4.50
2018-02-03T15:46:14.057Z,4.50
2018-02-03T15:48:41.719Z,4.50
2018-02-03T15:51:09.243Z,4.50
2018-02-03T15:53:36.768Z,4.50
2018-02-03T15:56:04.326Z,4.50
2018-02-03T15:58:31.862Z,4.40
2018-02-03T16:01:01.814Z,4.40
2018-02-03T16:03:30.129Z,4.20
2018-02-03T16:05:57.914Z,4.20
2018-02-03T16:08:25.434Z,4.20
2018-02-03T16:10:56.695Z,4.30
2018-02-03T16:13:25.011Z,4.10
2018-02-03T16:15:52.602Z,4.10
2018-02-03T16:18:20.324Z,4.00
2018-02-03T16:20:47.876Z,4.20
2018-02-03T16:23:15.455Z,4.30
2018-02-03T16:25:43.975Z,4.40
2018-02-03T16:28:11.557Z,4.50
2018-02-03T16:30:39.087Z,4.50
2018-02-03T16:33:07.380Z,4.50
2018-02-03T16:35:34.943Z,4.50
2018-02-03T16:38:02.469Z,4.60
2018-02-03T16:40:30.041Z,4.60
2018-02-03T16:42:57.633Z,4.60
2018-02-03T16:45:25.543Z,4.60
2018-02-03T16:47:53.083Z,4.70
2018-02-03T16:50:20.613Z,4.70
2018-02-03T16:52:48.939Z,4.30
2018-02-03T16:55:16.480Z,4.20
2018-02-03T16:57:44.049Z,4.40
2018-02-03T17:00:11.577Z,4.30
2018-02-03T17:02:39.150Z,4.30
2018-02-03T17:05:06.697Z,4.10
2018-02-03T17:07:34.254Z,4.30
2018-02-03T17:10:01.782Z,4.40
2018-02-03T17:12:29.310Z,4.40
2018-02-03T17:14:56.866Z,4.40
2018-02-03T17:17:25.334Z,4.40
2018-02-03T17:19:52.915Z,4.40
2018-02-03T17:22:20.457Z,4.30
2018-02-03T17:24:48.019Z,4.40
2018-02-03T17:27:15.564Z,4.50
2018-02-03T17:29:43.124Z,4.40
2018-02-03T17:32:10.677Z,4.30
2018-02-03T17:34:38.233Z,4.30
2018-02-03T17:37:11.435Z,4.40
2018-02-03T17:39:39.123Z,4.40
2018-02-03T17:42:06.719Z,4.50
2018-02-03T17:44:35.036Z,4.40
2018-02-03T17:47:03.064Z,4.40
2018-02-03T17:49:31.351Z,4.40
2018-02-03T17:51:59.603Z,4.40
2018-02-03T17:54:27.125Z,4.30
2018-02-03T17:57:00.310Z,4.20
2018-02-03T17:59:27.903Z,4.30
2018-02-03T18:01:55.438Z,4.40
2018-02-03T18:04:22.991Z,4.40
2018-02-03T18:06:56.189Z,4.30
2018-02-03T18:09:26.715Z,4.10
2018-02-03T18:11:54.235Z,3.90
2018-02-03T18:14:21.794Z,3.80
2018-02-03T18:16:49.320Z,3.80
2018-02-03T18:19:16.850Z,3.90
2018-02-03T18:21:44.414Z,4.10
2018-02-03T18:24:11.977Z,4.20
2018-02-03T18:26:39.543Z,3.80
2018-02-03T18:29:07.134Z,3.70
2018-02-03T18:31:34.709Z,3.90
2018-02-03T18:34:03.170Z,4.10
2018-02-03T18:36:31.486Z,4.30
2018-02-03T18:38:59.020Z,4.30
2018-02-03T18:41:26.564Z,4.20
2018-02-03T18:43:54.891Z,3.70
2018-02-03T18:46:22.423Z,3.70
2018-02-03T18:48:49.984Z,3.60
2018-02-03T18:51:17.515Z,3.70
2018-02-03T18:53:45.830Z,3.90
2018-02-03T18:56:13.402Z,3.90
2018-02-03T18:58:40.927Z,3.80
2018-02-03T19:01:10.395Z,3.60
2018-02-03T19:03:37.941Z,3.80
2018-02-03T19:06:06.524Z,3.90
2018-02-03T19:08:35.313Z,3.90
2018-02-03T19:11:03.675Z,3.90
2018-02-03T19:13:31.212Z,3.90
2018-02-03T19:15:58.793Z,4.00
2018-02-03T19:18:26.317Z,3.90
2018-02-03T19:20:53.882Z,4.10
2018-02-03T19:23:23.437Z,3.50
2018-02-03T19:25:50.966Z,3.40
2018-02-03T19:28:18.518Z,3.50
2018-02-03T19:30:46.093Z,3.60
2018-02-03T19:33:13.635Z,3.60
2018-02-03T19:35:41.183Z,3.70
2018-02-03T19:38:09.699Z,3.80
2018-02-03T19:40:37.439Z,3.80
2018-02-03T19:43:04.965Z,3.80
2018-02-03T19:45:32.550Z,3.80
2018-02-03T19:48:00.093Z,3.70
2018-02-03T19:50:27.627Z,3.80
2018-02-03T19:52:55.245Z,3.70
2018-02-03T19:55:22.788Z,3.60
2018-02-03T19:57:50.353Z,3.50
2018-02-03T20:00:17.890Z,3.50
2018-02-03T20:02:46.248Z,3.40
2018-02-03T20:05:14.096Z,3.40
2018-02-03T20:07:41.657Z,3.40
2018-02-03T20:10:10.114Z,3.30
2018-02-03T20:12:37.640Z,3.30
2018-02-03T20:15:06.866Z,2.90
2018-02-03T20:17:34.394Z,2.60
2018-02-03T20:20:01.921Z,2.50
2018-02-03T20:22:29.490Z,2.40
2018-02-03T20:24:57.993Z,2.60
2018-02-03T20:27:25.670Z,2.60
2018-02-03T20:29:53.194Z,2.70
2018-02-03T20:32:20.744Z,2.70
2018-02-03T20:34:48.297Z,2.70
2018-02-03T20:37:15.826Z,2.60
2018-02-03T20:39:43.375Z,2.60
2018-02-03T20:42:10.895Z,2.60
2018-02-03T20:44:38.442Z,2.50
2018-02-03T20:47:05.991Z,2.50
2018-02-03T20:49:34.279Z,2.50
2018-02-03T20:52:02.650Z,2.40
2018-02-03T20:54:30.186Z,2.40
2018-02-03T20:56:58.666Z,2.40
2018-02-03T20:59:26.234Z,2.40
2018-02-03T21:01:53.774Z,2.30
2018-02-03T21:04:21.340Z,2.20
2018-02-03T21:06:48.875Z,2.30
2018-02-03T21:09:16.434Z,2.30
2018-02-03T21:11:43.960Z,2.30
2018-02-03T21:14:12.427Z,2.30
2018-02-03T21:16:40.748Z,2.10
2018-02-03T21:19:08.268Z,2.10
2018-02-03T21:21:35.814Z,2.10
2018-02-03T21:24:03.338Z,2.00
2018-02-03T21:26:30.864Z,2.10
2018-02-03T21:29:00.402Z,2.00
2018-02-03T21:31:27.930Z,2.00
2018-02-03T21:33:55.502Z,1.90
2018-02-03T21:36:23.064Z,2.00
2018-02-03T21:38:50.752Z,1.90
2018-02-03T21:41:18.373Z,2.10
2018-02-03T21:43:45.921Z,2.10
2018-02-03T21:46:15.537Z,1.90
2018-02-03T21:48:43.096Z,1.60
2018-02-03T21:51:10.667Z,1.70
2018-02-03T21:53:38.218Z,1.60
2018-02-03T21:56:05.800Z,1.30
2018-02-03T21:58:33.331Z,1.40
2018-02-03T22:01:00.871Z,1.50
2018-02-03T22:03:29.229Z,1.60
2018-02-03T22:05:56.750Z,1.60
2018-02-03T22:11:19.500Z,1.30
2018-02-03T22:13:47.067Z,1.30
2018-02-03T22:16:14.607Z,1.40
2018-02-03T22:18:42.158Z,1.40
2018-02-03T22:21:10.442Z,1.40
2018-02-03T22:23:37.982Z,1.40
2018-02-03T22:26:06.302Z,1.30
2018-02-03T22:28:34.823Z,1.20
2018-02-03T22:31:04.352Z,1.20
2018-02-03T22:33:31.891Z,1.20
2018-02-03T22:35:59.448Z,1.10
2018-02-03T22:38:26.986Z,1.10
2018-02-03T22:40:54.513Z,1.10
2018-02-03T22:43:22.056Z,1.00
2018-02-03T22:45:49.594Z,1.00
2018-02-03T22:48:17.153Z,0.80
2018-02-03T22:50:45.437Z,0.80
2018-02-03T22:53:13.769Z,0.70
2018-02-03T22:55:41.303Z,0.70
2018-02-03T22:58:09.881Z,0.50
2018-02-03T23:00:37.410Z,0.50
2018-02-03T23:03:05.701Z,0.60
2018-02-03T23:05:33.263Z,0.60
2018-02-03T23:08:00.783Z,0.70
2018-02-03T23:10:29.311Z,0.60
2018-02-03T23:12:56.826Z,0.70
2018-02-03T23:15:25.167Z,0.70
2018-02-03T23:17:52.708Z,0.70
2018-02-03T23:20:21.194Z,0.60
2018-02-03T23:22:48.754Z,0.60
2018-02-03T23:25:16.283Z,0.60
2018-02-03T23:27:43.855Z,0.60
2018-02-03T23:30:11.387Z,0.60
2018-02-03T23:32:39.805Z,0.50
2018-02-03T23:35:07.364Z,0.50
2018-02-03T23:37:34.918Z,0.50
2018-02-03T23:40:02.450Z,0.40
2018-02-03T23:42:30.143Z,0.50
2018-02-03T23:44:57.738Z,0.50
2018-02-03T23:47:25.297Z,0.50
2018-02-03T23:49:52.851Z,0.60
2018-02-03T23:52:21.389Z,0.50
2018-02-03T23:54:48.950Z,0.50
2018-02-03T23:57:16.774Z,0.50
2018-02-03T23:59:44.299Z,0.40
